sensor_id;sensor_type;location;lat;lon;timestamp;P1;durP1;ratioP1;P2;durP2;ratioP2
22571;SDS011;11452;53.368;14.658;2024-02-14T00:00:18;3.83;;;3.43;;
22571;SDS011;11452;53.368;14.658;2024-02-14T00:05:24;4.17;;;3.40;;
22571;SDS011;11452;53.368;14.658;2024-02-14T00:10:30;4.20;;;3.07;;
22571;SDS011;11452;53.368;14.658;2024-02-14T00:15:36;5.93;;;3.47;;
22571;SDS011;11452;53.368;14.658;2024-02-14T00:20:43;4.77;;;3.50;;
22571;SDS011;11452;53.368;14.658;2024-02-14T00:25:48;4.87;;;2.97;;
22571;SDS011;11452;53.368;14.658;2024-02-14T00:30:54;4.97;;;3.43;;
22571;SDS011;11452;53.368;14.658;2024-02-14T00:36:00;4.63;;;3.73;;
22571;SDS011;11452;53.368;14.658;2024-02-14T00:41:06;4.63;;;3.90;;
22571;SDS011;11452;53.368;14.658;2024-02-14T00:46:15;5.87;;;4.13;;
22571;SDS011;11452;53.368;14.658;2024-02-14T00:51:21;4.43;;;3.53;;
22571;SDS011;11452;53.368;14.658;2024-02-14T00:56:27;5.47;;;3.27;;
22571;SDS011;11452;53.368;14.658;2024-02-14T01:01:33;4.47;;;2.93;;
22571;SDS011;11452;53.368;14.658;2024-02-14T01:06:39;4.10;;;3.70;;
22571;SDS011;11452;53.368;14.658;2024-02-14T01:11:45;4.27;;;3.70;;
22571;SDS011;11452;53.368;14.658;2024-02-14T01:16:52;5.73;;;4.53;;
22571;SDS011;11452;53.368;14.658;2024-02-14T01:21:58;5.87;;;4.00;;
22571;SDS011;11452;53.368;14.658;2024-02-14T01:27:04;6.20;;;4.57;;
22571;SDS011;11452;53.368;14.658;2024-02-14T01:32:12;4.07;;;3.53;;
22571;SDS011;11452;53.368;14.658;2024-02-14T01:37:18;4.63;;;4.10;;
22571;SDS011;11452;53.368;14.658;2024-02-14T01:42:24;5.60;;;4.23;;
22571;SDS011;11452;53.368;14.658;2024-02-14T01:47:31;6.03;;;4.30;;
22571;SDS011;11452;53.368;14.658;2024-02-14T01:52:38;6.33;;;4.20;;
22571;SDS011;11452;53.368;14.658;2024-02-14T01:57:46;7.47;;;4.60;;
22571;SDS011;11452;53.368;14.658;2024-02-14T02:02:52;8.03;;;5.10;;
22571;SDS011;11452;53.368;14.658;2024-02-14T02:07:59;7.43;;;4.50;;
22571;SDS011;11452;53.368;14.658;2024-02-14T02:13:05;5.90;;;5.07;;
22571;SDS011;11452;53.368;14.658;2024-02-14T02:18:13;6.10;;;4.63;;
22571;SDS011;11452;53.368;14.658;2024-02-14T02:23:19;6.03;;;4.67;;
22571;SDS011;11452;53.368;14.658;2024-02-14T02:28:25;8.40;;;5.57;;
22571;SDS011;11452;53.368;14.658;2024-02-14T02:33:31;8.33;;;5.40;;
22571;SDS011;11452;53.368;14.658;2024-02-14T02:38:37;6.20;;;5.03;;
22571;SDS011;11452;53.368;14.658;2024-02-14T02:43:43;6.83;;;5.70;;
22571;SDS011;11452;53.368;14.658;2024-02-14T02:48:49;7.60;;;5.50;;
22571;SDS011;11452;53.368;14.658;2024-02-14T02:53:56;7.33;;;5.30;;
22571;SDS011;11452;53.368;14.658;2024-02-14T02:59:01;6.17;;;4.67;;
22571;SDS011;11452;53.368;14.658;2024-02-14T03:04:07;7.90;;;5.50;;
22571;SDS011;11452;53.368;14.658;2024-02-14T03:09:13;7.90;;;5.80;;
22571;SDS011;11452;53.368;14.658;2024-02-14T03:14:19;6.67;;;5.83;;
22571;SDS011;11452;53.368;14.658;2024-02-14T03:19:24;6.67;;;5.60;;
22571;SDS011;11452;53.368;14.658;2024-02-14T03:24:34;7.70;;;5.77;;
22571;SDS011;11452;53.368;14.658;2024-02-14T03:29:41;7.07;;;5.40;;
22571;SDS011;11452;53.368;14.658;2024-02-14T03:34:48;7.17;;;5.67;;
22571;SDS011;11452;53.368;14.658;2024-02-14T03:39:53;8.20;;;5.87;;
22571;SDS011;11452;53.368;14.658;2024-02-14T03:44:59;6.30;;;4.70;;
22571;SDS011;11452;53.368;14.658;2024-02-14T03:50:09;8.37;;;5.90;;
22571;SDS011;11452;53.368;14.658;2024-02-14T03:55:15;6.77;;;5.43;;
22571;SDS011;11452;53.368;14.658;2024-02-14T04:00:23;7.17;;;5.60;;
22571;SDS011;11452;53.368;14.658;2024-02-14T04:05:28;6.97;;;5.03;;
22571;SDS011;11452;53.368;14.658;2024-02-14T04:10:34;5.47;;;4.93;;
22571;SDS011;11452;53.368;14.658;2024-02-14T04:15:40;6.63;;;6.03;;
22571;SDS011;11452;53.368;14.658;2024-02-14T04:20:46;7.10;;;5.53;;
22571;SDS011;11452;53.368;14.658;2024-02-14T04:25:52;8.50;;;5.30;;
22571;SDS011;11452;53.368;14.658;2024-02-14T04:30:58;5.70;;;5.17;;
22571;SDS011;11452;53.368;14.658;2024-02-14T04:36:04;5.90;;;4.40;;
22571;SDS011;11452;53.368;14.658;2024-02-14T04:41:11;7.03;;;4.67;;
22571;SDS011;11452;53.368;14.658;2024-02-14T04:46:16;5.47;;;4.27;;
22571;SDS011;11452;53.368;14.658;2024-02-14T04:51:22;6.80;;;5.53;;
22571;SDS011;11452;53.368;14.658;2024-02-14T04:56:29;9.00;;;5.23;;
22571;SDS011;11452;53.368;14.658;2024-02-14T05:01:34;7.23;;;4.50;;
22571;SDS011;11452;53.368;14.658;2024-02-14T05:06:40;6.37;;;4.57;;
22571;SDS011;11452;53.368;14.658;2024-02-14T05:11:46;5.20;;;4.20;;
22571;SDS011;11452;53.368;14.658;2024-02-14T05:16:52;6.27;;;4.90;;
22571;SDS011;11452;53.368;14.658;2024-02-14T05:21:59;4.80;;;4.30;;
22571;SDS011;11452;53.368;14.658;2024-02-14T05:27:05;5.53;;;4.00;;
22571;SDS011;11452;53.368;14.658;2024-02-14T05:32:11;3.90;;;3.60;;
22571;SDS011;11452;53.368;14.658;2024-02-14T05:37:17;5.37;;;4.10;;
22571;SDS011;11452;53.368;14.658;2024-02-14T05:42:23;7.90;;;4.17;;
22571;SDS011;11452;53.368;14.658;2024-02-14T05:47:29;5.37;;;3.90;;
22571;SDS011;11452;53.368;14.658;2024-02-14T05:52:35;3.93;;;3.33;;
22571;SDS011;11452;53.368;14.658;2024-02-14T05:57:43;5.43;;;3.60;;
22571;SDS011;11452;53.368;14.658;2024-02-14T06:02:48;5.27;;;3.50;;
22571;SDS011;11452;53.368;14.658;2024-02-14T06:07:54;5.90;;;4.03;;
22571;SDS011;11452;53.368;14.658;2024-02-14T06:13:00;3.80;;;3.33;;
22571;SDS011;11452;53.368;14.658;2024-02-14T06:18:05;4.93;;;3.80;;
22571;SDS011;11452;53.368;14.658;2024-02-14T06:23:11;4.60;;;4.10;;
22571;SDS011;11452;53.368;14.658;2024-02-14T06:28:17;4.23;;;3.87;;
22571;SDS011;11452;53.368;14.658;2024-02-14T06:33:23;6.67;;;3.97;;
22571;SDS011;11452;53.368;14.658;2024-02-14T06:38:30;5.47;;;3.70;;
22571;SDS011;11452;53.368;14.658;2024-02-14T06:43:36;5.27;;;3.90;;
22571;SDS011;11452;53.368;14.658;2024-02-14T06:48:43;4.43;;;3.53;;
22571;SDS011;11452;53.368;14.658;2024-02-14T06:53:49;4.40;;;4.00;;
22571;SDS011;11452;53.368;14.658;2024-02-14T06:58:55;6.33;;;4.57;;
22571;SDS011;11452;53.368;14.658;2024-02-14T07:04:04;6.03;;;4.07;;
22571;SDS011;11452;53.368;14.658;2024-02-14T07:09:10;5.00;;;4.50;;
22571;SDS011;11452;53.368;14.658;2024-02-14T07:14:16;5.17;;;4.67;;
22571;SDS011;11452;53.368;14.658;2024-02-14T07:19:22;6.03;;;4.43;;
22571;SDS011;11452;53.368;14.658;2024-02-14T07:24:28;6.23;;;4.87;;
22571;SDS011;11452;53.368;14.658;2024-02-14T07:29:33;5.47;;;4.97;;
22571;SDS011;11452;53.368;14.658;2024-02-14T07:34:40;6.30;;;5.37;;
22571;SDS011;11452;53.368;14.658;2024-02-14T07:39:46;6.00;;;5.00;;
22571;SDS011;11452;53.368;14.658;2024-02-14T07:44:52;7.70;;;6.00;;
22571;SDS011;11452;53.368;14.658;2024-02-14T07:49:59;6.13;;;5.33;;
22571;SDS011;11452;53.368;14.658;2024-02-14T07:55:06;6.07;;;4.80;;
22571;SDS011;11452;53.368;14.658;2024-02-14T08:00:14;5.53;;;5.03;;
22571;SDS011;11452;53.368;14.658;2024-02-14T08:05:22;7.50;;;5.50;;
22571;SDS011;11452;53.368;14.658;2024-02-14T08:10:28;6.90;;;5.17;;
22571;SDS011;11452;53.368;14.658;2024-02-14T08:15:35;6.73;;;5.50;;
22571;SDS011;11452;53.368;14.658;2024-02-14T08:20:42;7.87;;;5.00;;
22571;SDS011;11452;53.368;14.658;2024-02-14T08:25:48;7.10;;;5.70;;
22571;SDS011;11452;53.368;14.658;2024-02-14T08:30:54;7.30;;;6.57;;
22571;SDS011;11452;53.368;14.658;2024-02-14T08:35:59;6.47;;;5.73;;
22571;SDS011;11452;53.368;14.658;2024-02-14T08:41:06;6.07;;;5.47;;
22571;SDS011;11452;53.368;14.658;2024-02-14T08:46:12;10.53;;;5.93;;
22571;SDS011;11452;53.368;14.658;2024-02-14T08:51:18;8.03;;;6.50;;
22571;SDS011;11452;53.368;14.658;2024-02-14T08:56:24;7.40;;;6.27;;
22571;SDS011;11452;53.368;14.658;2024-02-14T09:01:30;8.17;;;6.10;;
22571;SDS011;11452;53.368;14.658;2024-02-14T09:06:36;7.77;;;6.43;;
22571;SDS011;11452;53.368;14.658;2024-02-14T09:11:43;8.90;;;7.47;;
22571;SDS011;11452;53.368;14.658;2024-02-14T09:16:50;8.43;;;6.40;;
22571;SDS011;11452;53.368;14.658;2024-02-14T09:21:56;11.40;;;8.43;;
22571;SDS011;11452;53.368;14.658;2024-02-14T09:27:01;11.10;;;7.73;;
22571;SDS011;11452;53.368;14.658;2024-02-14T09:32:09;10.33;;;7.47;;
22571;SDS011;11452;53.368;14.658;2024-02-14T09:37:15;8.70;;;7.30;;
22571;SDS011;11452;53.368;14.658;2024-02-14T09:42:36;7.73;;;6.93;;
22571;SDS011;11452;53.368;14.658;2024-02-14T09:47:40;11.57;;;7.43;;
22571;SDS011;11452;53.368;14.658;2024-02-14T09:52:50;9.43;;;6.90;;
22571;SDS011;11452;53.368;14.658;2024-02-14T09:57:57;9.70;;;6.27;;
22571;SDS011;11452;53.368;14.658;2024-02-14T10:03:07;9.27;;;7.17;;
22571;SDS011;11452;53.368;14.658;2024-02-14T10:08:14;10.83;;;7.20;;
22571;SDS011;11452;53.368;14.658;2024-02-14T10:13:20;8.50;;;6.00;;
22571;SDS011;11452;53.368;14.658;2024-02-14T10:18:26;8.00;;;6.60;;
22571;SDS011;11452;53.368;14.658;2024-02-14T10:23:33;10.50;;;7.00;;
22571;SDS011;11452;53.368;14.658;2024-02-14T10:28:43;7.70;;;6.90;;
22571;SDS011;11452;53.368;14.658;2024-02-14T10:33:51;7.60;;;6.37;;
22571;SDS011;11452;53.368;14.658;2024-02-14T10:38:59;7.37;;;6.63;;
22571;SDS011;11452;53.368;14.658;2024-02-14T10:44:07;7.90;;;7.00;;
22571;SDS011;11452;53.368;14.658;2024-02-14T10:49:16;7.13;;;6.20;;
22571;SDS011;11452;53.368;14.658;2024-02-14T10:54:23;6.83;;;6.17;;
22571;SDS011;11452;53.368;14.658;2024-02-14T10:59:30;7.10;;;6.27;;
22571;SDS011;11452;53.368;14.658;2024-02-14T11:04:38;7.10;;;5.90;;
22571;SDS011;11452;53.368;14.658;2024-02-14T11:09:44;7.37;;;6.10;;
22571;SDS011;11452;53.368;14.658;2024-02-14T11:14:50;9.97;;;6.80;;
22571;SDS011;11452;53.368;14.658;2024-02-14T11:19:58;7.77;;;6.10;;
22571;SDS011;11452;53.368;14.658;2024-02-14T11:25:07;6.87;;;5.77;;
22571;SDS011;11452;53.368;14.658;2024-02-14T11:30:26;7.47;;;6.60;;
22571;SDS011;11452;53.368;14.658;2024-02-14T11:35:33;9.93;;;5.77;;
22571;SDS011;11452;53.368;14.658;2024-02-14T11:40:39;7.80;;;6.07;;
22571;SDS011;11452;53.368;14.658;2024-02-14T11:45:47;9.33;;;6.37;;
22571;SDS011;11452;53.368;14.658;2024-02-14T11:50:56;7.23;;;5.77;;
22571;SDS011;11452;53.368;14.658;2024-02-14T11:56:02;7.13;;;5.93;;
22571;SDS011;11452;53.368;14.658;2024-02-14T12:01:09;7.33;;;5.83;;
22571;SDS011;11452;53.368;14.658;2024-02-14T12:06:16;6.03;;;5.13;;
22571;SDS011;11452;53.368;14.658;2024-02-14T12:11:22;6.27;;;5.23;;
22571;SDS011;11452;53.368;14.658;2024-02-14T12:16:29;7.50;;;5.73;;
22571;SDS011;11452;53.368;14.658;2024-02-14T12:21:36;5.93;;;5.30;;
22571;SDS011;11452;53.368;14.658;2024-02-14T12:26:42;5.60;;;4.90;;
22571;SDS011;11452;53.368;14.658;2024-02-14T12:31:48;5.57;;;5.07;;
22571;SDS011;11452;53.368;14.658;2024-02-14T12:36:54;5.27;;;4.60;;
22571;SDS011;11452;53.368;14.658;2024-02-14T12:41:59;6.43;;;4.70;;
22571;SDS011;11452;53.368;14.658;2024-02-14T12:47:07;6.57;;;5.07;;
22571;SDS011;11452;53.368;14.658;2024-02-14T12:52:13;4.93;;;4.43;;
22571;SDS011;11452;53.368;14.658;2024-02-14T12:57:19;5.60;;;4.53;;
22571;SDS011;11452;53.368;14.658;2024-02-14T13:02:26;6.80;;;5.83;;
22571;SDS011;11452;53.368;14.658;2024-02-14T13:07:33;4.93;;;4.53;;
22571;SDS011;11452;53.368;14.658;2024-02-14T13:12:39;6.60;;;4.27;;
22571;SDS011;11452;53.368;14.658;2024-02-14T13:17:46;5.60;;;4.73;;
22571;SDS011;11452;53.368;14.658;2024-02-14T13:22:53;5.23;;;4.73;;
22571;SDS011;11452;53.368;14.658;2024-02-14T13:28:00;5.50;;;4.17;;
22571;SDS011;11452;53.368;14.658;2024-02-14T13:33:06;8.30;;;5.53;;
22571;SDS011;11452;53.368;14.658;2024-02-14T13:38:13;6.43;;;5.67;;
22571;SDS011;11452;53.368;14.658;2024-02-14T13:43:20;8.00;;;5.50;;
22571;SDS011;11452;53.368;14.658;2024-02-14T13:48:26;5.90;;;5.30;;
22571;SDS011;11452;53.368;14.658;2024-02-14T13:53:32;7.03;;;5.50;;
22571;SDS011;11452;53.368;14.658;2024-02-14T13:58:38;6.77;;;5.77;;
22571;SDS011;11452;53.368;14.658;2024-02-14T14:03:43;5.50;;;4.97;;
22571;SDS011;11452;53.368;14.658;2024-02-14T14:08:50;6.37;;;5.73;;
22571;SDS011;11452;53.368;14.658;2024-02-14T14:13:56;5.97;;;5.37;;
22571;SDS011;11452;53.368;14.658;2024-02-14T14:19:03;7.47;;;5.83;;
22571;SDS011;11452;53.368;14.658;2024-02-14T14:24:10;7.23;;;6.60;;
22571;SDS011;11452;53.368;14.658;2024-02-14T14:29:16;6.67;;;6.07;;
22571;SDS011;11452;53.368;14.658;2024-02-14T14:34:23;6.60;;;5.63;;
22571;SDS011;11452;53.368;14.658;2024-02-14T14:39:31;6.70;;;5.50;;
22571;SDS011;11452;53.368;14.658;2024-02-14T14:44:36;6.80;;;6.10;;
22571;SDS011;11452;53.368;14.658;2024-02-14T14:49:43;6.90;;;5.80;;
22571;SDS011;11452;53.368;14.658;2024-02-14T14:54:49;6.23;;;5.63;;
22571;SDS011;11452;53.368;14.658;2024-02-14T14:59:55;6.53;;;5.60;;
22571;SDS011;11452;53.368;14.658;2024-02-14T15:05:01;6.10;;;5.60;;
22571;SDS011;11452;53.368;14.658;2024-02-14T15:10:07;6.67;;;6.07;;
22571;SDS011;11452;53.368;14.658;2024-02-14T15:15:13;6.50;;;5.90;;
22571;SDS011;11452;53.368;14.658;2024-02-14T15:20:21;6.47;;;5.87;;
22571;SDS011;11452;53.368;14.658;2024-02-14T15:25:27;6.07;;;5.47;;
22571;SDS011;11452;53.368;14.658;2024-02-14T15:30:33;6.00;;;5.40;;
22571;SDS011;11452;53.368;14.658;2024-02-14T15:35:57;8.03;;;6.27;;
22571;SDS011;11452;53.368;14.658;2024-02-14T15:41:04;6.93;;;6.23;;
22571;SDS011;11452;53.368;14.658;2024-02-14T15:46:11;7.30;;;6.60;;
22571;SDS011;11452;53.368;14.658;2024-02-14T15:51:17;7.67;;;6.07;;
22571;SDS011;11452;53.368;14.658;2024-02-14T15:56:24;8.03;;;6.83;;
22571;SDS011;11452;53.368;14.658;2024-02-14T16:01:31;7.10;;;6.40;;
22571;SDS011;11452;53.368;14.658;2024-02-14T16:06:36;7.57;;;6.67;;
22571;SDS011;11452;53.368;14.658;2024-02-14T16:11:43;7.57;;;6.77;;
22571;SDS011;11452;53.368;14.658;2024-02-14T16:16:50;8.40;;;7.40;;
22571;SDS011;11452;53.368;14.658;2024-02-14T16:21:56;7.53;;;6.83;;
22571;SDS011;11452;53.368;14.658;2024-02-14T16:27:05;8.70;;;7.80;;
22571;SDS011;11452;53.368;14.658;2024-02-14T16:32:11;8.93;;;7.77;;
22571;SDS011;11452;53.368;14.658;2024-02-14T16:37:17;9.00;;;8.07;;
22571;SDS011;11452;53.368;14.658;2024-02-14T16:42:23;9.37;;;8.20;;
22571;SDS011;11452;53.368;14.658;2024-02-14T16:47:30;9.70;;;8.77;;
22571;SDS011;11452;53.368;14.658;2024-02-14T16:52:36;9.20;;;7.50;;
22571;SDS011;11452;53.368;14.658;2024-02-14T16:57:42;8.47;;;7.60;;
22571;SDS011;11452;53.368;14.658;2024-02-14T17:02:48;8.27;;;7.33;;
22571;SDS011;11452;53.368;14.658;2024-02-14T17:07:54;7.90;;;7.20;;
22571;SDS011;11452;53.368;14.658;2024-02-14T17:13:00;9.80;;;8.33;;
22571;SDS011;11452;53.368;14.658;2024-02-14T17:18:05;9.23;;;8.23;;
22571;SDS011;11452;53.368;14.658;2024-02-14T17:23:12;8.63;;;7.43;;
22571;SDS011;11452;53.368;14.658;2024-02-14T17:28:18;8.40;;;7.60;;
22571;SDS011;11452;53.368;14.658;2024-02-14T17:33:24;7.23;;;6.50;;
22571;SDS011;11452;53.368;14.658;2024-02-14T17:38:30;8.00;;;7.23;;
22571;SDS011;11452;53.368;14.658;2024-02-14T17:43:36;8.27;;;7.50;;
22571;SDS011;11452;53.368;14.658;2024-02-14T17:48:42;7.33;;;6.63;;
22571;SDS011;11452;53.368;14.658;2024-02-14T17:53:48;9.33;;;8.43;;
22571;SDS011;11452;53.368;14.658;2024-02-14T17:58:53;9.27;;;8.43;;
22571;SDS011;11452;53.368;14.658;2024-02-14T18:03:59;9.17;;;8.20;;
22571;SDS011;11452;53.368;14.658;2024-02-14T18:09:07;9.07;;;8.10;;
22571;SDS011;11452;53.368;14.658;2024-02-14T18:14:13;8.93;;;8.07;;
22571;SDS011;11452;53.368;14.658;2024-02-14T18:19:19;9.63;;;8.63;;
22571;SDS011;11452;53.368;14.658;2024-02-14T18:24:25;8.43;;;7.63;;
22571;SDS011;11452;53.368;14.658;2024-02-14T18:29:32;11.17;;;10.03;;
22571;SDS011;11452;53.368;14.658;2024-02-14T18:34:38;11.57;;;10.07;;
22571;SDS011;11452;53.368;14.658;2024-02-14T18:39:44;11.80;;;10.40;;
22571;SDS011;11452;53.368;14.658;2024-02-14T18:44:49;12.63;;;11.23;;
22571;SDS011;11452;53.368;14.658;2024-02-14T18:49:55;14.20;;;12.20;;
22571;SDS011;11452;53.368;14.658;2024-02-14T18:55:01;14.10;;;12.10;;
22571;SDS011;11452;53.368;14.658;2024-02-14T19:00:07;13.67;;;11.77;;
22571;SDS011;11452;53.368;14.658;2024-02-14T19:05:14;13.23;;;10.70;;
22571;SDS011;11452;53.368;14.658;2024-02-14T19:10:20;13.87;;;11.57;;
22571;SDS011;11452;53.368;14.658;2024-02-14T19:15:27;12.93;;;11.20;;
22571;SDS011;11452;53.368;14.658;2024-02-14T19:20:33;13.63;;;11.50;;
22571;SDS011;11452;53.368;14.658;2024-02-14T19:25:39;16.07;;;12.63;;
22571;SDS011;11452;53.368;14.658;2024-02-14T19:30:44;15.40;;;12.50;;
22571;SDS011;11452;53.368;14.658;2024-02-14T19:35:50;15.67;;;11.67;;
22571;SDS011;11452;53.368;14.658;2024-02-14T19:40:57;13.73;;;11.00;;
22571;SDS011;11452;53.368;14.658;2024-02-14T19:46:03;12.90;;;9.77;;
22571;SDS011;11452;53.368;14.658;2024-02-14T19:51:09;16.07;;;12.20;;
22571;SDS011;11452;53.368;14.658;2024-02-14T19:56:16;12.80;;;11.00;;
22571;SDS011;11452;53.368;14.658;2024-02-14T20:01:23;13.00;;;11.23;;
22571;SDS011;11452;53.368;14.658;2024-02-14T20:06:29;15.40;;;12.10;;
22571;SDS011;11452;53.368;14.658;2024-02-14T20:11:35;15.20;;;12.73;;
22571;SDS011;11452;53.368;14.658;2024-02-14T20:16:41;14.03;;;12.50;;
22571;SDS011;11452;53.368;14.658;2024-02-14T20:21:46;17.37;;;15.43;;
22571;SDS011;11452;53.368;14.658;2024-02-14T20:26:54;18.20;;;14.87;;
22571;SDS011;11452;53.368;14.658;2024-02-14T20:32:00;18.00;;;13.67;;
22571;SDS011;11452;53.368;14.658;2024-02-14T20:37:07;18.20;;;15.10;;
22571;SDS011;11452;53.368;14.658;2024-02-14T20:42:12;16.07;;;14.43;;
22571;SDS011;11452;53.368;14.658;2024-02-14T20:47:18;16.47;;;14.67;;
22571;SDS011;11452;53.368;14.658;2024-02-14T20:52:24;17.70;;;14.40;;
22571;SDS011;11452;53.368;14.658;2024-02-14T20:57:31;18.63;;;15.50;;
22571;SDS011;11452;53.368;14.658;2024-02-14T21:02:36;17.00;;;15.20;;
22571;SDS011;11452;53.368;14.658;2024-02-14T21:07:43;15.93;;;14.17;;
22571;SDS011;11452;53.368;14.658;2024-02-14T21:12:49;16.57;;;14.47;;
22571;SDS011;11452;53.368;14.658;2024-02-14T21:17:55;14.93;;;12.73;;
22571;SDS011;11452;53.368;14.658;2024-02-14T21:23:01;16.87;;;14.60;;
22571;SDS011;11452;53.368;14.658;2024-02-14T21:28:07;20.40;;;17.17;;
22571;SDS011;11452;53.368;14.658;2024-02-14T21:33:14;19.63;;;17.47;;
22571;SDS011;11452;53.368;14.658;2024-02-14T21:38:20;20.03;;;17.37;;
22571;SDS011;11452;53.368;14.658;2024-02-14T21:43:27;18.97;;;17.00;;
22571;SDS011;11452;53.368;14.658;2024-02-14T21:48:32;19.70;;;17.17;;
22571;SDS011;11452;53.368;14.658;2024-02-14T21:53:39;19.03;;;16.93;;
22571;SDS011;11452;53.368;14.658;2024-02-14T21:58:47;20.03;;;17.83;;
22571;SDS011;11452;53.368;14.658;2024-02-14T22:03:53;20.40;;;17.40;;
22571;SDS011;11452;53.368;14.658;2024-02-14T22:08:59;19.80;;;16.63;;
22571;SDS011;11452;53.368;14.658;2024-02-14T22:14:05;18.60;;;16.63;;
22571;SDS011;11452;53.368;14.658;2024-02-14T22:19:12;18.57;;;16.67;;
22571;SDS011;11452;53.368;14.658;2024-02-14T22:24:18;21.50;;;18.60;;
22571;SDS011;11452;53.368;14.658;2024-02-14T22:29:26;18.57;;;16.57;;
22571;SDS011;11452;53.368;14.658;2024-02-14T22:34:33;19.37;;;17.27;;
22571;SDS011;11452;53.368;14.658;2024-02-14T22:39:42;21.47;;;17.40;;
22571;SDS011;11452;53.368;14.658;2024-02-14T22:44:48;19.37;;;17.27;;
22571;SDS011;11452;53.368;14.658;2024-02-14T22:49:54;16.67;;;15.00;;
22571;SDS011;11452;53.368;14.658;2024-02-14T22:55:00;18.37;;;15.30;;
22571;SDS011;11452;53.368;14.658;2024-02-14T23:00:06;17.00;;;15.30;;
22571;SDS011;11452;53.368;14.658;2024-02-14T23:05:16;18.57;;;16.77;;
22571;SDS011;11452;53.368;14.658;2024-02-14T23:10:25;17.77;;;16.07;;
22571;SDS011;11452;53.368;14.658;2024-02-14T23:15:31;16.73;;;15.03;;
22571;SDS011;11452;53.368;14.658;2024-02-14T23:20:37;17.37;;;15.50;;
22571;SDS011;11452;53.368;14.658;2024-02-14T23:25:43;16.20;;;14.47;;
22571;SDS011;11452;53.368;14.658;2024-02-14T23:30:50;15.47;;;14.00;;
22571;SDS011;11452;53.368;14.658;2024-02-14T23:35:57;17.93;;;15.87;;
22571;SDS011;11452;53.368;14.658;2024-02-14T23:41:03;16.43;;;14.73;;
22571;SDS011;11452;53.368;14.658;2024-02-14T23:46:09;16.73;;;15.13;;
22571;SDS011;11452;53.368;14.658;2024-02-14T23:51:15;16.83;;;15.10;;
22571;SDS011;11452;53.368;14.658;2024-02-14T23:56:21;16.63;;;14.70;;
